createdAt,value
2018-02-13T00:00:51.565Z,62.40
2018-02-13T00:03:22.655Z,62.60
2018-02-13T00:05:53.777Z,62.79
2018-02-13T00:08:24.806Z,63.17
2018-02-13T00:10:55.899Z,63.38
2018-02-13T00:13:26.983Z,63.56
2018-02-13T00:15:58.043Z,63.80
2018-02-13T00:18:29.102Z,64.11
2018-02-13T00:21:00.178Z,64.23
2018-02-13T00:23:31.239Z,64.67
2018-02-13T00:26:02.271Z,64.90
2018-02-13T00:28:33.330Z,65.46
2018-02-13T00:31:04.431Z,66.13
2018-02-13T00:33:35.463Z,66.58
2018-02-13T00:36:06.502Z,66.60
2018-02-13T00:38:37.575Z,66.69
2018-02-13T00:41:08.656Z,66.70
2018-02-13T00:43:54.646Z,66.80
2018-02-13T00:46:25.667Z,66.93
2018-02-13T00:48:56.762Z,66.91
2018-02-13T00:51:27.813Z,66.82
2018-02-13T00:53:58.894Z,66.61
2018-02-13T00:56:29.951Z,66.64
2018-02-13T00:59:01.130Z,66.74
2018-02-13T01:01:32.142Z,66.55
2018-02-13T01:04:03.259Z,66.88
2018-02-13T01:06:34.301Z,66.95
2018-02-13T01:09:05.392Z,66.89
2018-02-13T01:11:36.454Z,67.02
2018-02-13T01:14:07.508Z,67.20
2018-02-13T01:16:38.619Z,67.31
2018-02-13T01:19:09.680Z,67.28
2018-02-13T01:21:40.759Z,67.21
2018-02-13T01:24:11.833Z,67.21
2018-02-13T01:26:42.981Z,67.24
2018-02-13T01:29:14.014Z,67.30
2018-02-13T01:31:45.062Z,67.30
2018-02-13T01:34:16.140Z,67.48
2018-02-13T01:36:47.184Z,67.30
2018-02-13T01:39:18.234Z,67.45
2018-02-13T01:41:49.241Z,67.22
2018-02-13T01:44:20.361Z,67.22
2018-02-13T01:46:51.366Z,67.25
2018-02-13T01:49:22.479Z,67.16
2018-02-13T01:51:53.570Z,67.34
2018-02-13T01:54:24.737Z,67.97
2018-02-13T01:56:55.849Z,68.46
2018-02-13T01:59:26.894Z,68.67
2018-02-13T02:01:57.984Z,69.28
2018-02-13T02:04:29.042Z,69.76
2018-02-13T02:07:01.507Z,70.01
2018-02-13T02:09:32.612Z,69.34
2018-02-13T02:12:03.637Z,69.18
2018-02-13T02:14:34.795Z,69.08
2018-02-13T02:17:05.835Z,68.97
2018-02-13T02:19:36.905Z,68.90
2018-02-13T02:22:07.993Z,69.32
2018-02-13T02:24:39.115Z,69.14
2018-02-13T02:27:10.213Z,69.15
2018-02-13T02:29:41.306Z,69.30
2018-02-13T02:32:13.226Z,69.34
2018-02-13T02:34:44.253Z,69.58
2018-02-13T02:37:15.327Z,69.54
2018-02-13T02:39:46.411Z,69.44
2018-02-13T02:42:17.474Z,69.33
2018-02-13T02:44:48.538Z,69.71
2018-02-13T02:47:19.620Z,70.15
2018-02-13T02:49:50.724Z,70.22
2018-02-13T02:52:21.827Z,70.14
2018-02-13T02:54:52.962Z,70.20
2018-02-13T02:57:24.038Z,70.28
2018-02-13T02:59:55.090Z,70.64
2018-02-13T03:02:26.153Z,70.93
2018-02-13T03:04:57.239Z,70.90
2018-02-13T03:07:28.291Z,71.01
2018-02-13T03:10:00.296Z,71.04
2018-02-13T03:12:31.374Z,70.95
2018-02-13T03:15:02.452Z,71.02
2018-02-13T03:17:33.493Z,71.12
2018-02-13T03:20:05.217Z,70.96
2018-02-13T03:22:36.263Z,70.60
2018-02-13T03:25:07.331Z,70.26
2018-02-13T03:27:38.362Z,70.02
2018-02-13T03:30:09.410Z,69.75
2018-02-13T03:32:40.509Z,69.52
2018-02-13T03:35:11.615Z,69.47
2018-02-13T03:37:42.659Z,69.55
2018-02-13T03:40:13.829Z,69.58
2018-02-13T03:42:44.888Z,69.75
2018-02-13T03:45:15.954Z,69.89
2018-02-13T03:47:46.997Z,70.09
2018-02-13T03:50:18.067Z,70.01
2018-02-13T03:52:49.137Z,70.08
2018-02-13T03:55:20.157Z,70.00
2018-02-13T03:57:51.223Z,69.79
2018-02-13T04:00:22.332Z,69.45
2018-02-13T04:02:53.413Z,69.20
2018-02-13T04:05:24.457Z,68.99
2018-02-13T04:07:55.504Z,69.04
2018-02-13T04:10:26.576Z,69.58
2018-02-13T04:12:57.606Z,69.77
2018-02-13T04:15:28.701Z,69.76
2018-02-13T04:17:59.745Z,69.73
2018-02-13T04:20:30.885Z,69.61
2018-02-13T04:23:01.923Z,69.33
2018-02-13T04:25:33.171Z,69.27
2018-02-13T04:28:04.212Z,69.17
2018-02-13T04:30:35.361Z,69.05
2018-02-13T04:33:06.395Z,68.97
2018-02-13T04:35:37.515Z,68.99
2018-02-13T04:38:08.557Z,68.93
2018-02-13T04:40:39.655Z,68.90
2018-02-13T04:43:10.666Z,68.95
2018-02-13T04:45:41.738Z,68.88
2018-02-13T04:48:12.822Z,68.89
2018-02-13T04:50:43.911Z,68.74
2018-02-13T04:53:14.964Z,68.56
2018-02-13T04:55:46.054Z,68.42
2018-02-13T04:58:17.125Z,68.13
2018-02-13T05:00:48.202Z,67.93
2018-02-13T05:03:19.308Z,67.74
2018-02-13T05:05:50.387Z,67.49
2018-02-13T05:08:21.457Z,67.25
2018-02-13T05:10:52.523Z,67.07
2018-02-13T05:13:23.663Z,67.08
2018-02-13T05:15:54.727Z,66.96
2018-02-13T05:18:25.848Z,66.84
2018-02-13T05:20:56.965Z,66.68
2018-02-13T05:23:28.162Z,66.59
2018-02-13T05:25:59.291Z,66.67
2018-02-13T05:28:30.378Z,66.75
2018-02-13T05:31:01.450Z,66.78
2018-02-13T05:33:32.561Z,66.86
2018-02-13T05:36:03.629Z,67.16
2018-02-13T05:38:34.751Z,67.30
2018-02-13T05:41:05.794Z,67.46
2018-02-13T05:43:36.879Z,67.55
2018-02-13T05:46:07.911Z,67.79
2018-02-13T05:48:38.991Z,67.78
2018-02-13T05:51:10.055Z,67.75
2018-02-13T05:53:41.119Z,67.89
2018-02-13T05:56:12.211Z,68.12
2018-02-13T05:58:43.241Z,68.28
2018-02-13T06:01:14.338Z,68.52
2018-02-13T06:03:45.483Z,68.47
2018-02-13T06:06:16.557Z,68.33
2018-02-13T06:08:47.618Z,69.58
2018-02-13T06:11:18.723Z,70.16
2018-02-13T06:13:49.794Z,70.79
2018-02-13T06:16:20.875Z,70.72
2018-02-13T06:18:52.690Z,71.18
2018-02-13T06:21:23.860Z,71.54
2018-02-13T06:23:56.128Z,71.53
2018-02-13T06:26:27.271Z,71.60
2018-02-13T06:28:58.362Z,71.49
2018-02-13T06:31:29.378Z,70.63
2018-02-13T06:34:00.503Z,70.30
2018-02-13T06:36:31.555Z,70.15
2018-02-13T06:39:02.733Z,69.82
2018-02-13T06:41:33.869Z,70.26
2018-02-13T06:44:04.994Z,70.42
2018-02-13T06:46:36.003Z,70.37
2018-02-13T06:49:07.137Z,70.43
2018-02-13T06:51:38.219Z,70.40
2018-02-13T06:54:09.295Z,70.41
2018-02-13T06:56:40.402Z,70.01
2018-02-13T06:59:11.514Z,69.54
2018-02-13T07:01:42.560Z,69.17
2018-02-13T07:04:13.646Z,68.84
2018-02-13T07:06:44.696Z,68.52
2018-02-13T07:09:15.813Z,68.38
2018-02-13T07:11:46.870Z,68.57
2018-02-13T07:14:18.017Z,68.42
2018-02-13T07:16:49.047Z,68.00
2018-02-13T07:19:20.132Z,67.71
2018-02-13T07:21:51.174Z,67.46
2018-02-13T07:24:22.445Z,67.21
2018-02-13T07:26:53.548Z,67.03
2018-02-13T07:29:24.601Z,66.77
2018-02-13T07:31:55.681Z,66.34
2018-02-13T07:34:26.744Z,66.12
2018-02-13T07:36:57.823Z,65.76
2018-02-13T07:39:29.528Z,65.46
2018-02-13T07:42:00.622Z,65.42
2018-02-13T07:44:31.702Z,65.17
2018-02-13T07:47:02.743Z,65.07
2018-02-13T07:49:33.876Z,65.04
2018-02-13T07:52:04.954Z,64.89
2018-02-13T07:54:36.024Z,64.30
2018-02-13T07:57:07.049Z,64.38
2018-02-13T07:59:38.131Z,63.83
2018-02-13T08:02:09.217Z,63.39
2018-02-13T08:04:40.260Z,62.79
2018-02-13T08:07:11.334Z,62.11
2018-02-13T08:09:42.440Z,61.79
2018-02-13T08:12:13.549Z,61.40
2018-02-13T08:14:44.633Z,61.21
2018-02-13T08:17:15.850Z,61.23
2018-02-13T08:19:46.905Z,60.83
2018-02-13T08:22:18.266Z,60.67
2018-02-13T08:24:49.388Z,60.10
2018-02-13T08:27:20.498Z,59.83
2018-02-13T08:29:51.546Z,59.57
2018-02-13T08:32:22.595Z,58.64
2018-02-13T08:34:53.707Z,58.24
2018-02-13T08:37:24.782Z,58.13
2018-02-13T08:39:55.896Z,55.36
2018-02-13T08:42:26.985Z,51.35
2018-02-13T08:44:58.054Z,45.84
2018-02-13T08:47:29.162Z,38.18
2018-02-13T08:50:00.232Z,33.50
2018-02-13T08:52:31.301Z,29.52
2018-02-13T08:55:02.403Z,24.62
2018-02-13T08:57:33.561Z,21.34
2018-02-13T09:00:04.607Z,21.37
2018-02-13T09:02:35.691Z,19.56
2018-02-13T09:05:06.750Z,18.82
2018-02-13T09:07:37.830Z,17.81
2018-02-13T09:10:08.905Z,17.68
2018-02-13T09:12:39.979Z,17.08
2018-02-13T09:15:11.038Z,16.22
2018-02-13T09:17:42.113Z,15.45
2018-02-13T09:20:13.159Z,14.98
2018-02-13T09:22:44.286Z,14.26
2018-02-13T09:25:15.442Z,13.36
2018-02-13T09:27:46.511Z,13.85
2018-02-13T09:30:17.652Z,13.63
2018-02-13T09:32:48.717Z,13.77
2018-02-13T09:35:19.826Z,14.04
2018-02-13T09:37:50.851Z,13.54
2018-02-13T09:40:22.003Z,13.18
2018-02-13T09:42:53.037Z,13.43
2018-02-13T09:45:24.131Z,13.81
2018-02-13T09:47:55.168Z,12.74
2018-02-13T09:50:26.324Z,12.14
2018-02-13T09:52:57.425Z,12.16
2018-02-13T09:55:28.508Z,12.33
2018-02-13T09:57:59.625Z,14.00
2018-02-13T10:00:30.783Z,16.32
2018-02-13T10:03:01.920Z,18.11
2018-02-13T10:05:33.550Z,18.21
2018-02-13T10:08:04.648Z,18.34
2018-02-13T10:10:35.686Z,18.72
2018-02-13T10:13:06.792Z,18.28
2018-02-13T10:15:37.869Z,17.76
2018-02-13T10:18:09.917Z,17.04
2018-02-13T10:20:40.992Z,17.84
2018-02-13T10:23:12.098Z,17.22
2018-02-13T10:25:43.222Z,16.22
2018-02-13T10:28:14.341Z,16.48
2018-02-13T10:30:45.405Z,17.48
2018-02-13T10:33:16.538Z,17.44
2018-02-13T10:35:47.640Z,16.74
2018-02-13T10:38:18.818Z,17.40
2018-02-13T10:40:49.877Z,18.39
2018-02-13T10:43:20.966Z,19.21
2018-02-13T10:45:52.016Z,18.33
2018-02-13T10:48:23.170Z,18.06
2018-02-13T10:50:54.260Z,18.79
2018-02-13T10:53:25.328Z,18.47
2018-02-13T10:55:56.368Z,18.40
2018-02-13T10:58:27.419Z,18.46
2018-02-13T11:01:04.570Z,18.92
2018-02-13T11:03:35.666Z,19.91
2018-02-13T11:06:06.729Z,19.24
2018-02-13T11:08:37.849Z,19.30
2018-02-13T11:11:08.949Z,18.34
2018-02-13T11:13:40.016Z,17.48
2018-02-13T11:16:11.136Z,17.20
2018-02-13T11:18:42.200Z,17.54
2018-02-13T11:21:13.337Z,18.74
2018-02-13T11:23:44.401Z,19.56
2018-02-13T11:26:15.497Z,21.03
2018-02-13T11:28:46.515Z,22.38
2018-02-13T11:31:25.344Z,22.67
2018-02-13T11:33:57.384Z,21.76
2018-02-13T11:36:29.104Z,20.95
2018-02-13T11:39:00.171Z,20.81
2018-02-13T11:41:31.213Z,22.00
2018-02-13T11:44:02.287Z,23.11
2018-02-13T11:46:33.390Z,25.00
2018-02-13T11:49:05.120Z,26.66
2018-02-13T11:51:36.190Z,27.69
2018-02-13T11:54:07.298Z,28.14
2018-02-13T11:56:38.346Z,28.42
2018-02-13T11:59:09.477Z,28.83
2018-02-13T12:01:40.527Z,30.20
2018-02-13T12:04:11.601Z,30.41
2018-02-13T12:06:42.667Z,30.47
2018-02-13T12:09:13.926Z,30.27
2018-02-13T12:11:44.965Z,30.27
2018-02-13T12:14:16.087Z,30.43
2018-02-13T12:16:47.141Z,30.06
2018-02-13T12:19:18.250Z,28.81
2018-02-13T12:21:49.321Z,29.75
2018-02-13T12:24:20.411Z,30.93
2018-02-13T12:26:51.504Z,31.94
2018-02-13T12:29:22.613Z,33.25
2018-02-13T12:31:53.680Z,34.52
2018-02-13T12:34:24.769Z,34.56
2018-02-13T12:36:55.846Z,34.69
2018-02-13T12:39:26.994Z,34.48
2018-02-13T12:41:58.121Z,35.27
2018-02-13T12:44:29.296Z,36.30
2018-02-13T12:47:00.385Z,34.28
2018-02-13T12:49:31.551Z,34.07
2018-02-13T12:52:02.676Z,34.45
2018-02-13T12:54:33.782Z,36.61
2018-02-13T12:57:04.890Z,36.87
2018-02-13T12:59:35.997Z,37.25
2018-02-13T13:02:07.089Z,37.38
2018-02-13T13:04:38.278Z,37.86
2018-02-13T13:07:09.327Z,37.53
2018-02-13T13:09:40.465Z,36.17
2018-02-13T13:12:11.546Z,33.36
2018-02-13T13:14:42.691Z,32.51
2018-02-13T13:17:13.792Z,32.96
2018-02-13T13:19:44.959Z,33.66
2018-02-13T13:22:16.012Z,34.21
2018-02-13T13:24:47.048Z,34.91
2018-02-13T13:27:18.061Z,34.44
2018-02-13T13:29:49.109Z,34.21
2018-02-13T13:32:20.126Z,34.25
2018-02-13T13:34:51.263Z,34.31
2018-02-13T13:37:22.308Z,35.06
2018-02-13T13:39:53.292Z,37.12
2018-02-13T13:42:24.315Z,38.21
2018-02-13T13:44:55.268Z,38.71
2018-02-13T13:47:26.271Z,38.84
2018-02-13T13:49:57.240Z,38.47
2018-02-13T13:52:28.247Z,37.83
2018-02-13T13:54:59.285Z,37.53
2018-02-13T13:57:30.282Z,37.59
2018-02-13T14:00:01.311Z,38.32
2018-02-13T14:02:32.388Z,38.75
2018-02-13T14:05:03.421Z,39.03
2018-02-13T14:07:34.525Z,39.19
2018-02-13T14:10:05.550Z,39.51
2018-02-13T14:12:36.577Z,39.45
2018-02-13T14:15:07.675Z,39.74
2018-02-13T14:17:38.686Z,40.67
2018-02-13T14:20:09.803Z,40.35
2018-02-13T14:22:40.801Z,40.60
2018-02-13T14:25:11.843Z,40.64
2018-02-13T14:27:42.841Z,40.61
2018-02-13T14:30:13.909Z,40.24
2018-02-13T14:32:44.859Z,39.80
2018-02-13T14:35:15.904Z,38.56
2018-02-13T14:37:46.898Z,36.48
2018-02-13T14:40:17.931Z,35.47
2018-02-13T14:42:48.964Z,34.81
2018-02-13T14:45:19.945Z,33.85
2018-02-13T14:47:50.970Z,34.83
2018-02-13T14:50:21.942Z,35.20
2018-02-13T14:52:52.956Z,35.48
2018-02-13T14:55:24.012Z,36.36
2018-02-13T14:57:54.976Z,37.48
2018-02-13T15:00:26.007Z,38.51
2018-02-13T15:02:56.994Z,38.33
2018-02-13T15:05:28.017Z,38.19
2018-02-13T15:07:59.037Z,38.17
2018-02-13T15:10:30.053Z,37.94
2018-02-13T15:13:01.125Z,37.68
2018-02-13T15:15:42.132Z,37.90
2018-02-13T15:18:17.258Z,38.61
2018-02-13T15:20:48.336Z,39.19
2018-02-13T15:23:19.383Z,38.95
2018-02-13T15:25:51.146Z,39.20
2018-02-13T15:28:22.669Z,40.01
2018-02-13T15:30:53.734Z,41.04
2018-02-13T15:33:24.857Z,42.28
2018-02-13T15:35:55.820Z,42.95
2018-02-13T15:38:26.942Z,43.31
2018-02-13T15:40:58.038Z,44.16
2018-02-13T15:43:29.076Z,44.60
2018-02-13T15:46:00.056Z,44.96
2018-02-13T15:48:31.055Z,45.22
2018-02-13T15:51:02.062Z,45.64
2018-02-13T15:53:33.080Z,46.40
2018-02-13T15:56:04.188Z,47.33
2018-02-13T15:58:36.084Z,46.98
2018-02-13T16:01:07.266Z,47.97
2018-02-13T16:03:38.291Z,48.13
2018-02-13T16:06:09.281Z,48.44
2018-02-13T16:08:40.303Z,48.86
2018-02-13T16:11:11.382Z,48.81
2018-02-13T16:13:42.370Z,49.15
2018-02-13T16:16:16.265Z,49.02
2018-02-13T16:18:47.284Z,49.82
2018-02-13T16:21:18.293Z,49.80
2018-02-13T16:23:49.300Z,50.03
2018-02-13T16:26:20.322Z,50.46
2018-02-13T16:28:51.268Z,50.82
2018-02-13T16:31:22.277Z,51.10
2018-02-13T16:33:53.272Z,51.49
2018-02-13T16:36:24.318Z,51.58
2018-02-13T16:38:55.314Z,52.91
2018-02-13T16:41:26.334Z,52.85
2018-02-13T16:43:57.395Z,53.21
2018-02-13T16:46:28.392Z,52.97
2018-02-13T16:48:59.415Z,53.84
2018-02-13T16:51:30.417Z,54.19
2018-02-13T16:54:01.449Z,54.84
2018-02-13T16:56:32.439Z,54.70
2018-02-13T16:59:03.433Z,54.32
2018-02-13T17:01:34.523Z,55.20
2018-02-13T17:04:05.550Z,55.06
2018-02-13T17:06:36.678Z,54.94
2018-02-13T17:09:07.981Z,55.88
2018-02-13T17:11:39.447Z,55.78
2018-02-13T17:14:10.453Z,56.15
2018-02-13T17:16:41.490Z,55.85
2018-02-13T17:19:12.491Z,56.16
2018-02-13T17:21:43.522Z,56.45
2018-02-13T17:24:14.565Z,56.52
2018-02-13T17:26:45.598Z,56.04
2018-02-13T17:29:16.573Z,56.29
2018-02-13T17:31:47.575Z,56.85
2018-02-13T17:34:18.631Z,56.79
2018-02-13T17:36:49.740Z,57.00
2018-02-13T17:39:20.748Z,57.28
2018-02-13T17:41:51.761Z,57.36
2018-02-13T17:44:22.731Z,57.25
2018-02-13T17:46:53.723Z,57.58
2018-02-13T17:49:24.724Z,57.71
2018-02-13T17:51:55.705Z,57.37
2018-02-13T17:54:26.718Z,57.21
2018-02-13T17:56:57.733Z,57.40
2018-02-13T17:59:28.724Z,57.08
2018-02-13T18:01:59.699Z,56.76
2018-02-13T18:04:30.670Z,57.42
2018-02-13T18:07:01.670Z,56.42
2018-02-13T18:09:32.700Z,56.19
2018-02-13T18:12:03.737Z,55.82
2018-02-13T18:14:34.782Z,55.92
2018-02-13T18:17:05.762Z,55.95
2018-02-13T18:19:36.764Z,56.10
2018-02-13T18:22:07.870Z,56.15
2018-02-13T18:24:38.901Z,55.81
2018-02-13T18:27:09.939Z,55.92
2018-02-13T18:29:40.960Z,56.12
2018-02-13T18:32:11.973Z,56.25
2018-02-13T18:34:42.967Z,56.29
2018-02-13T18:37:14.193Z,56.64
2018-02-13T18:39:45.263Z,56.50
2018-02-13T18:42:16.249Z,56.81
2018-02-13T18:44:47.284Z,56.01
2018-02-13T18:47:18.330Z,56.21
2018-02-13T18:49:49.314Z,56.40
2018-02-13T18:54:51.319Z,56.77
2018-02-13T18:57:22.296Z,56.91
2018-02-13T19:02:30.989Z,57.03
2018-02-13T19:05:02.016Z,57.04
2018-02-13T19:07:33.048Z,57.17
2018-02-13T19:10:04.267Z,57.20
2018-02-13T19:12:35.439Z,57.23
2018-02-13T19:15:06.676Z,57.33
2018-02-13T19:17:37.705Z,57.63
2018-02-13T19:20:08.756Z,57.61
2018-02-13T19:22:39.759Z,58.00
2018-02-13T19:25:10.775Z,58.12
2018-02-13T19:27:41.743Z,58.42
2018-02-13T19:30:12.865Z,58.78
2018-02-13T19:32:43.830Z,58.55
2018-02-13T19:35:14.809Z,58.04
2018-02-13T19:37:45.799Z,57.89
2018-02-13T19:40:16.808Z,58.00
2018-02-13T19:42:47.853Z,58.02
2018-02-13T19:45:19.044Z,57.85
2018-02-13T19:47:50.081Z,58.25
2018-02-13T19:50:21.149Z,58.36
2018-02-13T19:52:52.148Z,58.26
2018-02-13T19:55:23.280Z,58.24
2018-02-13T19:57:54.327Z,58.38
2018-02-13T20:00:25.505Z,58.15
2018-02-13T20:02:56.509Z,57.93
2018-02-13T20:05:27.515Z,58.06
2018-02-13T20:07:58.512Z,57.99
2018-02-13T20:10:29.498Z,58.30
2018-02-13T20:13:00.490Z,58.24
2018-02-13T20:15:31.493Z,58.45
2018-02-13T20:18:02.486Z,58.98
2018-02-13T20:20:33.498Z,59.21
2018-02-13T20:23:04.467Z,59.38
2018-02-13T20:25:35.498Z,59.13
2018-02-13T20:28:06.523Z,58.72
2018-02-13T20:30:37.499Z,58.48
2018-02-13T20:33:08.602Z,58.35
2018-02-13T20:35:39.655Z,58.31
2018-02-13T20:38:10.644Z,58.61
2018-02-13T20:40:41.606Z,58.89
2018-02-13T20:43:12.691Z,58.76
2018-02-13T20:45:43.710Z,59.02
2018-02-13T20:48:14.797Z,59.43
2018-02-13T20:50:45.847Z,59.83
2018-02-13T20:53:16.860Z,59.97
2018-02-13T20:55:47.880Z,59.81
2018-02-13T20:58:18.829Z,59.40
2018-02-13T21:00:49.875Z,59.30
2018-02-13T21:03:20.858Z,59.26
2018-02-13T21:05:51.869Z,59.23
2018-02-13T21:08:22.906Z,59.24
2018-02-13T21:10:53.871Z,59.38
2018-02-13T21:13:24.919Z,59.48
2018-02-13T21:15:55.960Z,59.76
2018-02-13T21:18:26.987Z,60.01
2018-02-13T21:20:57.977Z,59.95
2018-02-13T21:23:29.009Z,59.77
2018-02-13T21:26:00.021Z,59.42
2018-02-13T21:28:31.102Z,59.35
2018-02-13T21:31:02.124Z,59.28
2018-02-13T21:33:33.152Z,59.03
2018-02-13T21:36:04.135Z,58.78
2018-02-13T21:38:35.152Z,58.74
2018-02-13T21:41:06.193Z,59.46
2018-02-13T21:43:37.208Z,59.46
2018-02-13T21:46:08.168Z,59.59
2018-02-13T21:48:39.203Z,59.65
2018-02-13T21:51:10.159Z,59.70
2018-02-13T21:53:41.197Z,59.94
2018-02-13T21:56:12.159Z,60.12
2018-02-13T21:58:43.204Z,59.81
2018-02-13T22:01:14.225Z,59.44
2018-02-13T22:03:45.262Z,59.52
2018-02-13T22:06:16.281Z,59.69
2018-02-13T22:08:47.243Z,59.83
2018-02-13T22:11:18.265Z,60.02
2018-02-13T22:13:49.224Z,60.11
2018-02-13T22:16:20.288Z,59.79
2018-02-13T22:18:51.281Z,59.58
2018-02-13T22:21:22.304Z,59.54
2018-02-13T22:23:53.341Z,59.76
2018-02-13T22:26:24.310Z,59.52
2018-02-13T22:29:02.171Z,59.78
2018-02-13T22:31:33.132Z,59.63
2018-02-13T22:34:04.135Z,59.89
2018-02-13T22:36:42.323Z,59.72
2018-02-13T22:39:13.346Z,59.73
2018-02-13T22:41:44.318Z,59.72
2018-02-13T22:44:22.401Z,59.52
2018-02-13T22:46:53.346Z,59.23
2018-02-13T22:49:24.405Z,59.13
2018-02-13T22:51:55.405Z,59.16
2018-02-13T22:54:26.445Z,59.06
2018-02-13T22:56:57.448Z,59.32
2018-02-13T22:59:28.476Z,59.56
2018-02-13T23:01:59.437Z,59.58
2018-02-13T23:04:30.528Z,60.01
2018-02-13T23:07:01.518Z,60.21
2018-02-13T23:09:32.523Z,60.59
2018-02-13T23:12:03.497Z,60.35
2018-02-13T23:14:34.512Z,60.31
2018-02-13T23:17:05.487Z,60.29
2018-02-13T23:19:36.892Z,60.44
2018-02-13T23:22:07.872Z,60.38
2018-02-13T23:24:38.888Z,60.28
2018-02-13T23:27:09.922Z,60.39
2018-02-13T23:29:40.900Z,60.75
2018-02-13T23:32:11.939Z,60.63
2018-02-13T23:34:42.897Z,60.70
2018-02-13T23:37:14.085Z,60.98
2018-02-13T23:39:45.106Z,61.13
2018-02-13T23:42:16.087Z,61.05
2018-02-13T23:44:47.123Z,61.54
2018-02-13T23:47:18.078Z,61.59
2018-02-13T23:49:49.108Z,61.86
2018-02-13T23:52:20.096Z,62.00
2018-02-13T23:54:51.149Z,61.97
2018-02-13T23:57:22.104Z,62.00
2018-02-13T23:59:53.119Z,62.01
